Time;durP1;ratioP1;P1;durP2;ratioP2;P2;SDS_P1;SDS_P2;PMS_P1;PMS_P2;Temp;Humidity;BMP_temperature;BMP_pressure;BME280_temperature;BME280_humidity;BME280_pressure;Samples;Min_cycle;Max_cycle;Signal;HPM_P1;HPM_P2
2022/12/01 00:00:45;;;;;;;16.93;5.97;;;6.80;99.90;;;;;;5099097;28;20073;-80
2022/12/01 00:03:12;;;;;;;17.03;6.00;;;6.80;99.90;;;;;;5109712;28;20024;-81
2022/12/01 00:05:37;;;;;;;16.73;6.17;;;6.80;99.90;;;;;;5096221;28;20032;-80
2022/12/01 00:08:04;;;;;;;14.90;6.13;;;6.80;99.90;;;;;;5105947;28;20042;-80
2022/12/01 00:10:32;;;;;;;14.33;6.63;;;6.80;99.90;;;;;;5101069;28;20063;-80
2022/12/01 00:13:00;;;;;;;14.73;6.00;;;6.80;99.90;;;;;;5107196;28;20062;-80
2022/12/01 00:15:28;;;;;;;14.23;6.53;;;6.80;99.90;;;;;;5111284;28;20551;-80
2022/12/01 00:17:54;;;;;;;18.20;6.47;;;6.80;99.90;;;;;;5098514;28;20027;-80
2022/12/01 00:20:19;;;;;;;15.43;6.53;;;6.70;99.90;;;;;;5103056;28;20054;-80
2022/12/01 00:22:47;;;;;;;17.73;7.30;;;6.60;99.90;;;;;;5105590;28;20133;-80
2022/12/01 00:25:15;;;;;;;12.60;6.00;;;6.60;99.90;;;;;;5095889;28;20078;-80
2022/12/01 00:27:41;;;;;;;17.77;7.13;;;6.60;99.90;;;;;;5108971;28;20052;-80
2022/12/01 00:30:10;;;;;;;17.53;7.10;;;6.60;99.90;;;;;;5100393;28;20039;-80
2022/12/01 00:32:35;;;;;;;16.10;7.33;;;6.60;99.90;;;;;;5100140;28;20032;-80
2022/12/01 00:35:01;;;;;;;17.63;7.37;;;6.60;99.90;;;;;;5093329;28;20024;-80
2022/12/01 00:37:30;;;;;;;19.33;7.50;;;6.60;99.90;;;;;;5110094;28;20039;-80
2022/12/01 00:39:56;;;;;;;17.57;7.70;;;6.60;99.90;;;;;;5108424;28;20030;-80
2022/12/01 00:42:22;;;;;;;16.40;7.10;;;6.60;99.90;;;;;;5109336;28;20034;-80
2022/12/01 00:44:47;;;;;;;16.87;7.87;;;6.60;99.90;;;;;;5113629;28;20032;-80
2022/12/01 00:47:13;;;;;;;21.53;8.47;;;6.60;99.90;;;;;;5112989;28;20063;-80
2022/12/01 00:49:39;;;;;;;17.13;7.70;;;6.60;99.90;;;;;;5112265;28;20024;-81
2022/12/01 00:52:06;;;;;;;19.27;7.83;;;6.50;99.90;;;;;;5113076;28;20026;-80
2022/12/01 00:54:31;;;;;;;19.60;8.50;;;6.50;99.90;;;;;;5112733;28;20050;-80
2022/12/01 00:56:58;;;;;;;22.42;8.85;;;6.40;99.90;;;;;;5112110;28;20461;-79
2022/12/01 00:59:24;;;;;;;19.13;8.03;;;6.50;99.90;;;;;;5114054;28;20055;-80
2022/12/01 01:01:50;;;;;;;21.90;8.93;;;6.50;99.90;;;;;;5109114;28;20057;-80
2022/12/01 01:04:15;;;;;;;18.97;8.33;;;6.50;99.90;;;;;;5097666;28;20054;-80
2022/12/01 01:06:44;;;;;;;18.50;7.60;;;6.50;99.90;;;;;;5107221;28;20049;-79
2022/12/01 01:09:11;;;;;;;20.60;9.10;;;6.50;99.90;;;;;;5116519;28;20019;-79
2022/12/01 01:11:37;;;;;;;20.27;7.80;;;6.50;99.90;;;;;;5115770;28;20114;-79
2022/12/01 01:14:04;;;;;;;19.77;8.10;;;6.50;99.90;;;;;;5102520;28;20036;-80
2022/12/01 01:16:30;;;;;;;22.03;8.00;;;6.50;99.90;;;;;;5095794;28;20067;-80
2022/12/01 01:18:57;;;;;;;19.23;8.90;;;6.40;99.90;;;;;;5096483;28;20169;-80
2022/12/01 01:21:23;;;;;;;19.20;8.00;;;6.40;99.90;;;;;;5095724;28;20027;-79
2022/12/01 01:23:50;;;;;;;20.10;8.50;;;6.40;99.90;;;;;;5094929;28;20119;-79
2022/12/01 01:26:19;;;;;;;20.77;8.20;;;6.40;99.90;;;;;;5097010;28;20031;-79
2022/12/01 01:28:46;;;;;;;18.83;8.23;;;6.40;99.90;;;;;;5096215;28;20025;-78
2022/12/01 01:31:15;;;;;;;18.83;8.63;;;6.40;99.90;;;;;;5095789;28;20020;-79
2022/12/01 01:33:41;;;;;;;20.93;8.40;;;6.40;99.90;;;;;;5096191;28;20024;-79
2022/12/01 01:36:07;;;;;;;20.00;8.67;;;6.40;99.90;;;;;;5095476;28;20063;-79
2022/12/01 01:38:33;;;;;;;19.57;8.67;;;6.40;99.90;;;;;;5095412;28;20058;-79
2022/12/01 01:41:00;;;;;;;20.60;8.53;;;6.40;99.90;;;;;;5094980;28;20073;-79
2022/12/01 01:44:02;;;;;;;19.70;9.03;;;6.40;99.90;;;;;;5095893;28;20101;-80
2022/12/01 01:46:30;;;;;;;21.90;9.23;;;6.30;99.90;;;;;;5034203;28;20037;-80
2022/12/01 01:49:09;;;;;;;22.60;9.77;;;6.30;99.90;;;;;;5084120;28;20297;-80
2022/12/01 01:51:40;;;;;;;20.10;8.80;;;6.30;99.90;;;;;;5095446;28;20125;-80
2022/12/01 01:54:14;;;;;;;22.13;9.70;;;6.30;99.90;;;;;;5096543;28;20051;-80
2022/12/01 01:56:42;;;;;;;17.27;8.00;;;6.30;99.90;;;;;;5095068;28;20028;-80
2022/12/01 01:59:09;;;;;;;19.63;8.47;;;6.20;99.90;;;;;;5095107;28;20077;-80
2022/12/01 02:01:35;;;;;;;24.53;10.03;;;6.20;99.90;;;;;;5095265;28;20028;-80
2022/12/01 02:04:02;;;;;;;20.23;9.40;;;6.30;99.90;;;;;;5094700;28;20031;-80
2022/12/01 02:06:28;;;;;;;22.07;10.13;;;6.30;99.90;;;;;;5094870;28;20115;-80
2022/12/01 02:08:53;;;;;;;23.27;10.03;;;6.30;99.90;;;;;;5095564;28;20106;-80
2022/12/01 02:11:51;;;;;;;23.07;9.33;;;6.20;99.90;;;;;;5094887;28;20468;-80
2022/12/01 02:14:31;;;;;;;23.30;9.07;;;6.20;99.90;;;;;;5094915;28;20036;-79
2022/12/01 02:17:20;;;;;;;20.53;9.30;;;6.20;99.90;;;;;;5095645;28;20040;-79
2022/12/01 02:20:21;;;;;;;26.60;10.07;;;6.20;99.90;;;;;;5094326;28;20206;-80
2022/12/01 02:23:07;;;;;;;22.53;10.50;;;6.20;99.90;;;;;;5079509;28;20035;-79
2022/12/01 02:25:55;;;;;;;23.30;9.90;;;6.10;99.90;;;;;;5094698;28;20040;-79
2022/12/01 02:28:59;;;;;;;22.33;9.47;;;6.10;99.90;;;;;;5094727;28;20020;-79
2022/12/01 02:31:38;;;;;;;25.00;9.60;;;6.10;99.90;;;;;;5095683;28;20032;-79
2022/12/01 02:34:23;;;;;;;21.13;9.30;;;6.10;99.90;;;;;;5093897;28;20035;-79
2022/12/01 02:37:05;;;;;;;20.67;9.13;;;6.10;99.90;;;;;;5093939;28;20024;-79
2022/12/01 02:40:06;;;;;;;;;;;6.10;99.90;;;;;;5094964;28;20027;-79
2022/12/01 02:42:50;;;;;;;18.97;8.63;;;6.10;99.90;;;;;;5033158;28;19963;-79
2022/12/01 02:45:27;;;;;;;18.97;8.50;;;6.10;99.90;;;;;;5087543;28;20062;-79
2022/12/01 02:47:56;;;;;;;20.27;8.80;;;6.10;99.90;;;;;;5093631;28;20032;-79
2022/12/01 02:50:24;;;;;;;22.17;9.03;;;6.10;99.90;;;;;;5094090;28;20028;-79
2022/12/01 02:52:51;;;;;;;23.23;9.93;;;6.10;99.90;;;;;;5093563;28;20362;-79
2022/12/01 02:55:17;;;;;;;19.13;9.03;;;6.10;99.90;;;;;;5093839;28;20118;-79
2022/12/01 02:57:42;;;;;;;19.87;9.17;;;6.10;99.90;;;;;;5093426;28;20094;-78
2022/12/01 03:00:12;;;;;;;21.33;8.83;;;6.00;99.90;;;;;;5094003;28;20024;-79
2022/12/01 03:03:00;;;;;;;19.60;8.80;;;6.00;99.90;;;;;;5094203;28;20020;-78
2022/12/01 03:05:44;;;;;;;20.83;8.90;;;6.00;99.90;;;;;;5081051;28;20459;-78
2022/12/01 03:08:31;;;;;;;18.60;8.50;;;6.00;99.90;;;;;;5095037;28;20020;-78
2022/12/01 03:10:58;;;;;;;19.20;8.20;;;6.00;99.90;;;;;;5092933;28;20028;-79
2022/12/01 03:13:47;;;;;;;16.87;8.17;;;6.00;99.90;;;;;;5093405;28;20020;-79
2022/12/01 03:16:31;;;;;;;18.90;8.63;;;6.00;99.90;;;;;;5096296;28;20082;-79
2022/12/01 03:19:03;;;;;;;17.40;7.80;;;6.00;99.90;;;;;;5114658;28;20055;-80
2022/12/01 03:21:34;;;;;;;17.30;8.10;;;6.00;99.90;;;;;;5115040;28;20027;-80
2022/12/01 03:24:28;;;;;;;15.57;7.13;;;6.00;99.90;;;;;;5112680;28;20049;-79
2022/12/01 03:26:56;;;;;;;16.07;7.23;;;5.90;99.90;;;;;;5110638;28;20059;-78
2022/12/01 03:29:42;;;;;;;14.97;6.97;;;5.90;99.90;;;;;;5113990;28;20114;-78
2022/12/01 03:32:19;;;;;;;16.10;7.03;;;6.00;99.90;;;;;;5114580;28;20028;-79
2022/12/01 03:34:48;;;;;;;12.97;6.43;;;6.00;99.90;;;;;;5113720;28;20031;-79
2022/12/01 03:37:31;;;;;;;14.83;7.37;;;5.90;99.90;;;;;;5113997;28;20028;-79
2022/12/01 03:39:57;;;;;;;;;;;5.90;99.90;;;;;;5114377;28;20495;-79
2022/12/01 03:42:29;;;;;;;14.63;6.33;;;5.90;99.90;;;;;;5113569;28;19911;-79
2022/12/01 03:44:59;;;;;;;13.97;6.53;;;5.90;99.90;;;;;;5114001;28;20062;-79
2022/12/01 03:47:30;;;;;;;15.37;7.17;;;5.80;99.90;;;;;;5113791;28;20122;-79
2022/12/01 03:49:59;;;;;;;13.10;6.15;;;5.80;99.90;;;;;;5113657;28;20080;-81
2022/12/01 03:52:48;;;;;;;15.77;7.07;;;5.90;99.90;;;;;;5114175;28;20039;-78
2022/12/01 03:55:31;;;;;;;13.57;6.90;;;5.80;99.90;;;;;;5114155;28;20114;-78
2022/12/01 03:58:08;;;;;;;17.20;7.53;;;5.80;99.90;;;;;;5113926;28;20032;-78
2022/12/01 04:00:35;;;;;;;14.90;7.27;;;5.80;99.90;;;;;;5113352;28;20023;-78
2022/12/01 04:03:02;;;;;;;15.17;7.17;;;5.80;99.90;;;;;;5113857;28;20071;-78
2022/12/01 04:05:29;;;;;;;16.23;7.43;;;5.80;99.90;;;;;;5114225;28;20058;-78
2022/12/01 04:07:54;;;;;;;15.63;7.50;;;5.80;99.90;;;;;;5113002;28;20402;-78
2022/12/01 04:10:20;;;;;;;16.37;7.43;;;5.80;99.90;;;;;;5113197;28;20137;-78
2022/12/01 04:12:46;;;;;;;17.73;7.80;;;5.90;99.90;;;;;;5114383;28;20034;-78
2022/12/01 04:15:13;;;;;;;15.90;6.97;;;5.80;99.90;;;;;;5112868;28;20392;-78
2022/12/01 04:17:43;;;;;;;16.70;7.70;;;5.70;99.90;;;;;;5113177;28;20028;-78
2022/12/01 04:20:10;;;;;;;14.93;7.13;;;5.70;99.90;;;;;;5112686;28;20016;-78
2022/12/01 04:22:36;;;;;;;16.93;7.97;;;5.60;99.90;;;;;;5113308;28;20027;-78
2022/12/01 04:25:03;;;;;;;17.97;8.20;;;5.50;99.90;;;;;;5112585;28;20072;-78
2022/12/01 04:27:29;;;;;;;19.47;8.73;;;5.50;99.90;;;;;;5113057;28;20102;-77
2022/12/01 04:29:54;;;;;;;21.63;9.10;;;5.40;99.90;;;;;;5113615;28;20058;-78
2022/12/01 04:32:20;;;;;;;16.77;8.27;;;5.40;99.90;;;;;;5113125;28;20023;-78
2022/12/01 04:34:45;;;;;;;18.63;8.27;;;5.30;99.90;;;;;;5112868;28;20026;-78
2022/12/01 04:37:11;;;;;;;20.47;7.60;;;5.20;99.90;;;;;;5115515;28;20023;-79
2022/12/01 04:39:37;;;;;;;20.07;8.33;;;5.20;99.90;;;;;;5118533;28;20106;-77
2022/12/01 04:42:03;;;;;;;20.47;9.00;;;5.20;99.90;;;;;;5116751;28;20509;-79
2022/12/01 04:44:29;;;;;;;19.87;8.10;;;5.20;99.90;;;;;;5118305;28;20050;-78
2022/12/01 04:46:55;;;;;;;20.80;9.00;;;5.30;99.90;;;;;;5117803;28;20028;-79
2022/12/01 04:49:21;;;;;;;18.83;8.07;;;5.20;99.90;;;;;;5118131;28;20031;-78
2022/12/01 04:51:48;;;;;;;17.70;8.60;;;5.20;99.90;;;;;;5118019;28;20027;-78
2022/12/01 04:54:15;;;;;;;21.63;9.00;;;5.20;99.90;;;;;;5116578;28;20038;-78
2022/12/01 04:56:41;;;;;;;16.33;8.30;;;5.20;99.90;;;;;;5117734;28;20023;-78
2022/12/01 04:59:07;;;;;;;19.03;8.40;;;5.20;99.90;;;;;;5116329;28;20023;-79
2022/12/01 05:01:32;;;;;;;21.50;9.17;;;5.30;99.90;;;;;;5116683;28;20080;-78
2022/12/01 05:03:58;;;;;;;20.17;8.43;;;5.30;99.90;;;;;;5116428;28;20019;-78
2022/12/01 05:06:26;;;;;;;18.37;8.70;;;5.30;99.90;;;;;;5116512;28;20058;-79
2022/12/01 05:08:55;;;;;;;17.53;7.90;;;5.40;99.90;;;;;;5116237;28;20089;-79
2022/12/01 05:11:22;;;;;;;21.07;8.87;;;5.30;99.90;;;;;;5116550;28;20456;-79
2022/12/01 05:13:48;;;;;;;21.10;9.13;;;5.30;99.90;;;;;;5116568;28;20403;-79
2022/12/01 05:16:23;;;;;;;20.10;9.40;;;5.40;99.90;;;;;;5116723;28;20052;-78
2022/12/01 05:20:55;;;;;;;19.10;8.37;;;5.40;99.90;;;;;;5116335;28;20054;-79
2022/12/01 05:21:41;;;;;;;18.10;7.83;;;5.40;99.90;;;;;;5117565;28;20448;-79
2022/12/01 05:24:07;;;;;;;17.80;7.90;;;5.40;99.90;;;;;;5116950;28;20028;-78
2022/12/01 05:26:33;;;;;;;16.77;8.00;;;5.40;99.90;;;;;;5116308;28;20476;-79
2022/12/01 05:28:58;;;;;;;16.00;7.27;;;5.50;99.90;;;;;;5117012;28;20020;-79
2022/12/01 05:31:24;;;;;;;16.50;8.07;;;5.50;99.90;;;;;;5115941;28;20066;-79
2022/12/01 05:33:49;;;;;;;17.10;7.60;;;5.50;99.90;;;;;;5116951;28;20458;-79
2022/12/01 05:36:15;;;;;;;14.57;7.37;;;5.50;99.90;;;;;;5115686;28;20055;-79
2022/12/01 05:38:41;;;;;;;21.43;8.73;;;5.50;99.90;;;;;;5116226;28;20049;-79
2022/12/01 05:41:06;;;;;;;16.87;7.77;;;5.60;99.90;;;;;;5115311;28;20024;-79
2022/12/01 05:43:32;;;;;;;16.77;7.77;;;5.50;99.90;;;;;;5116007;28;20024;-79
2022/12/01 05:45:57;;;;;;;14.97;7.37;;;5.50;99.90;;;;;;5115596;28;20034;-79
2022/12/01 05:48:24;;;;;;;19.27;7.57;;;5.50;99.90;;;;;;5115395;28;20368;-79
2022/12/01 05:50:50;;;;;;;14.50;6.70;;;5.50;99.90;;;;;;5115934;28;20035;-79
2022/12/01 05:53:16;;;;;;;14.47;7.00;;;5.50;99.90;;;;;;5116644;28;20019;-79
2022/12/01 05:55:41;;;;;;;16.43;7.23;;;5.60;99.90;;;;;;5115928;28;20066;-79
2022/12/01 05:58:08;;;;;;;14.10;7.23;;;5.60;99.90;;;;;;5115419;28;20031;-79
2022/12/01 06:00:34;;;;;;;13.00;6.13;;;5.60;99.90;;;;;;5115814;28;20016;-79
2022/12/01 06:03:00;;;;;;;17.40;8.07;;;5.60;99.90;;;;;;5116251;28;20031;-79
2022/12/01 06:05:26;;;;;;;16.87;7.80;;;5.60;99.90;;;;;;5115612;28;20031;-79
2022/12/01 06:07:52;;;;;;;17.87;8.23;;;5.60;99.90;;;;;;5115636;28;20042;-78
2022/12/01 06:10:18;;;;;;;17.53;8.13;;;5.60;99.90;;;;;;5114843;28;20027;-79
2022/12/01 06:12:43;;;;;;;15.10;7.47;;;5.60;99.90;;;;;;5115336;28;20032;-80
2022/12/01 06:15:11;;;;;;;17.77;7.57;;;5.60;99.90;;;;;;5115928;28;20054;-80
2022/12/01 06:17:37;;;;;;;16.40;7.60;;;5.60;99.90;;;;;;5115300;28;20062;-79
2022/12/01 06:20:03;;;;;;;17.77;7.57;;;5.60;99.90;;;;;;5106446;28;20046;-79
2022/12/01 06:22:29;;;;;;;13.63;6.87;;;5.60;99.90;;;;;;5106907;28;20028;-79
2022/12/01 06:24:55;;;;;;;15.37;7.37;;;5.60;99.90;;;;;;5098652;28;20372;-79
2022/12/01 06:27:20;;;;;;;15.53;7.00;;;5.70;99.90;;;;;;5105599;28;20017;-79
2022/12/01 06:29:47;;;;;;;16.00;7.37;;;5.60;99.90;;;;;;5107500;28;20027;-79
2022/12/01 06:32:13;;;;;;;15.60;7.03;;;5.60;99.90;;;;;;5101835;28;20074;-79
2022/12/01 06:34:39;;;;;;;16.60;8.17;;;5.70;99.90;;;;;;5114411;28;20112;-79
2022/12/01 06:37:04;;;;;;;15.80;7.43;;;5.70;99.90;;;;;;5112568;28;20052;-79
2022/12/01 06:39:30;;;;;;;15.30;7.33;;;5.70;99.90;;;;;;5105395;28;20107;-79
2022/12/01 06:41:56;;;;;;;14.47;7.07;;;5.70;99.90;;;;;;5099099;28;20162;-79
2022/12/01 06:44:21;;;;;;;16.80;7.67;;;5.70;99.90;;;;;;5095547;28;20016;-79
2022/12/01 06:46:51;;;;;;;14.13;6.70;;;5.70;99.90;;;;;;5109031;28;20369;-79
2022/12/01 06:49:17;;;;;;;17.33;7.10;;;5.70;99.90;;;;;;5097056;28;20028;-79
2022/12/01 06:51:43;;;;;;;14.07;6.70;;;5.70;99.90;;;;;;5107199;28;20031;-79
2022/12/01 06:54:10;;;;;;;13.33;6.53;;;5.70;99.90;;;;;;5113545;28;20016;-78
2022/12/01 06:56:36;;;;;;;16.70;7.77;;;5.70;99.90;;;;;;5097294;28;20448;-78
2022/12/01 06:59:01;;;;;;;13.27;7.03;;;5.70;99.90;;;;;;5105456;28;20107;-78
2022/12/01 07:01:27;;;;;;;15.27;7.17;;;5.70;99.90;;;;;;5104570;28;20496;-78
2022/12/01 07:03:53;;;;;;;16.63;7.17;;;5.70;99.90;;;;;;5099019;28;20402;-78
2022/12/01 07:06:19;;;;;;;15.60;7.63;;;5.70;99.90;;;;;;5109630;28;20019;-78
2022/12/01 07:08:45;;;;;;;18.83;7.20;;;5.60;99.90;;;;;;5098417;28;20417;-78
2022/12/01 07:11:13;;;;;;;18.83;7.47;;;5.70;99.90;;;;;;5104194;28;20055;-79
2022/12/01 07:13:39;;;;;;;16.97;7.20;;;5.60;99.90;;;;;;5103652;28;20346;-79
2022/12/01 07:16:07;;;;;;;15.10;6.97;;;5.60;99.90;;;;;;5093204;28;20072;-79
2022/12/01 07:18:34;;;;;;;16.60;7.40;;;5.60;99.90;;;;;;5111454;28;20091;-79
2022/12/01 07:21:05;;;;;;;14.10;7.27;;;5.60;99.90;;;;;;5099780;28;20060;-79
2022/12/01 07:23:31;;;;;;;14.30;7.05;;;5.60;99.90;;;;;;5113748;28;20030;-79
2022/12/01 07:26:16;;;;;;;19.37;7.00;;;5.60;99.90;;;;;;5099046;28;20032;-80
2022/12/01 07:28:42;;;;;;;16.43;7.63;;;5.60;99.90;;;;;;5099363;28;20027;-79
2022/12/01 07:31:13;;;;;;;16.53;8.10;;;5.60;99.90;;;;;;5105107;28;20401;-79
2022/12/01 07:33:39;;;;;;;16.77;7.53;;;5.60;99.90;;;;;;5106814;28;20019;-79
2022/12/01 07:36:05;;;;;;;15.10;7.43;;;5.60;99.90;;;;;;5096585;28;20036;-79
2022/12/01 07:38:32;;;;;;;15.73;6.83;;;5.70;99.90;;;;;;5111066;28;20016;-79
2022/12/01 07:41:03;;;;;;;16.03;8.03;;;5.70;99.90;;;;;;5100459;28;20016;-80
2022/12/01 07:43:30;;;;;;;16.87;8.23;;;5.70;99.90;;;;;;5103202;28;20031;-79
2022/12/01 07:45:56;;;;;;;16.47;7.40;;;5.70;99.90;;;;;;5109093;28;20039;-79
2022/12/01 07:48:21;;;;;;;14.77;7.20;;;5.70;99.90;;;;;;5095989;28;20384;-79
2022/12/01 07:50:47;;;;;;;17.50;7.23;;;5.70;99.90;;;;;;5114032;28;20404;-79
2022/12/01 07:53:13;;;;;;;19.13;7.50;;;5.70;99.90;;;;;;5103431;28;20046;-78
2022/12/01 07:55:38;;;;;;;15.93;6.80;;;5.70;99.90;;;;;;5092985;28;20035;-77
2022/12/01 07:58:04;;;;;;;14.03;6.90;;;5.80;99.90;;;;;;5108139;28;20051;-79
2022/12/01 08:00:29;;;;;;;14.77;7.13;;;5.80;99.90;;;;;;5111716;28;20449;-79
2022/12/01 08:02:55;;;;;;;16.47;7.63;;;5.80;99.90;;;;;;5110167;28;20092;-79
2022/12/01 08:05:20;;;;;;;14.13;6.43;;;5.80;99.90;;;;;;5101395;28;20024;-79
2022/12/01 08:07:46;;;;;;;14.67;6.83;;;5.80;99.90;;;;;;5106832;28;20031;-81
2022/12/01 08:10:11;;;;;;;14.00;6.30;;;5.80;99.90;;;;;;5112069;28;20161;-81
2022/12/01 08:12:37;;;;;;;16.20;6.80;;;5.80;99.90;;;;;;5112270;28;20019;-79
2022/12/01 08:15:03;;;;;;;14.67;6.60;;;5.80;99.90;;;;;;5104534;28;20055;-78
2022/12/01 08:17:28;;;;;;;13.40;6.67;;;5.80;99.90;;;;;;5113572;28;20365;-81
2022/12/01 08:19:54;;;;;;;13.57;6.13;;;5.90;99.90;;;;;;5108373;28;20505;-81
2022/12/01 08:22:20;;;;;;;12.73;6.17;;;5.80;99.90;;;;;;5111806;28;20022;-84
2022/12/01 08:24:45;;;;;;;14.60;6.17;;;5.80;99.90;;;;;;5099888;28;20020;-80
2022/12/01 08:27:11;;;;;;;15.80;6.63;;;5.80;99.90;;;;;;5102346;28;20023;-82
2022/12/01 08:29:36;;;;;;;14.23;7.17;;;5.80;99.90;;;;;;5111856;28;20049;-82
2022/12/01 08:32:02;;;;;;;13.63;6.40;;;5.90;99.90;;;;;;5111367;28;20016;-82
2022/12/01 08:34:28;;;;;;;15.00;7.07;;;5.80;99.90;;;;;;5111581;28;20024;-82
2022/12/01 08:36:53;;;;;;;14.53;5.73;;;5.90;99.90;;;;;;5102342;28;20106;-82
2022/12/01 08:39:19;;;;;;;10.93;5.60;;;5.90;99.90;;;;;;5113033;28;20020;-83
2022/12/01 08:41:45;;;;;;;12.13;6.20;;;5.90;99.90;;;;;;5100342;28;20027;-79
2022/12/01 08:44:10;;;;;;;14.63;7.20;;;5.80;99.90;;;;;;5107699;28;20434;-80
2022/12/01 08:46:36;;;;;;;17.97;6.53;;;5.90;99.90;;;;;;5112491;28;20020;-79
2022/12/01 08:49:04;;;;;;;14.57;6.27;;;5.90;99.90;;;;;;5110406;28;20049;-81
2022/12/01 08:51:30;;;;;;;12.70;6.17;;;5.80;99.90;;;;;;5112316;28;20023;-79
2022/12/01 08:53:57;;;;;;;12.67;5.90;;;5.80;99.90;;;;;;5111163;28;20024;-79
2022/12/01 08:56:26;;;;;;;11.83;6.37;;;5.90;99.90;;;;;;5111614;28;20077;-84
2022/12/01 08:58:53;;;;;;;14.00;6.50;;;5.90;99.90;;;;;;5092906;28;20016;-84
2022/12/01 09:01:19;;;;;;;13.37;6.33;;;5.90;99.90;;;;;;5092629;28;20179;-85
2022/12/01 09:03:45;;;;;;;13.87;6.40;;;6.00;99.90;;;;;;5093818;28;20020;-85
2022/12/01 09:06:19;;;;;;;13.27;6.40;;;6.00;99.90;;;;;;5092730;28;20024;-88
2022/12/01 09:08:45;;;;;;;14.67;6.53;;;6.00;99.90;;;;;;5096824;28;20012;-79
2022/12/01 09:11:13;;;;;;;14.93;6.83;;;6.00;99.90;;;;;;5111289;28;20024;-79
2022/12/01 09:13:39;;;;;;;15.57;7.30;;;6.00;99.90;;;;;;5107855;28;20023;-75
2022/12/01 09:16:10;;;;;;;14.83;7.00;;;6.00;99.90;;;;;;5090877;28;20094;-77
2022/12/01 09:18:36;;;;;;;12.53;6.33;;;6.00;99.90;;;;;;5096307;28;20030;-78
2022/12/01 09:21:11;;;;;;;11.63;6.17;;;6.10;99.90;;;;;;5111797;28;20019;-78
2022/12/01 09:23:38;;;;;;;14.77;6.53;;;6.10;99.90;;;;;;5102251;28;20054;-78
2022/12/01 09:26:04;;;;;;;13.90;6.40;;;6.10;99.90;;;;;;5111116;28;20088;-78
2022/12/01 09:28:30;;;;;;;14.00;7.20;;;6.00;99.90;;;;;;5099728;28;20404;-78
2022/12/01 09:30:55;;;;;;;15.20;6.77;;;6.00;99.90;;;;;;5110141;28;20113;-78
2022/12/01 09:33:21;;;;;;;13.77;6.97;;;6.00;99.90;;;;;;5105067;28;20448;-78
2022/12/01 09:35:47;;;;;;;19.33;8.80;;;6.00;99.90;;;;;;5115744;28;20081;-78
2022/12/01 09:38:12;;;;;;;20.97;8.20;;;6.00;99.90;;;;;;5097891;28;20035;-78
2022/12/01 09:40:41;;;;;;;17.97;7.77;;;6.00;99.90;;;;;;5111664;28;20013;-76
2022/12/01 09:43:15;;;;;;;15.77;7.03;;;5.90;99.90;;;;;;5102395;28;20468;-78
2022/12/01 09:45:46;;;;;;;17.13;7.23;;;5.90;99.90;;;;;;5115365;28;20031;-78
2022/12/01 09:48:28;;;;;;;15.17;7.43;;;5.90;99.90;;;;;;5097889;28;20054;-78
2022/12/01 09:50:54;;;;;;;15.67;7.77;;;6.00;99.90;;;;;;5115422;28;20513;-78
2022/12/01 09:53:24;;;;;;;15.40;7.00;;;5.90;99.90;;;;;;5115982;28;20212;-78
2022/12/01 09:55:50;;;;;;;16.67;6.83;;;5.90;99.90;;;;;;5101203;28;20024;-77
2022/12/01 09:58:23;;;;;;;15.70;7.27;;;6.00;99.90;;;;;;5112124;28;20024;-78
2022/12/01 10:00:51;;;;;;;18.10;7.30;;;6.00;99.90;;;;;;5101651;28;20121;-79
2022/12/01 10:03:34;;;;;;;16.90;7.30;;;6.10;99.90;;;;;;5114411;28;20034;-78
2022/12/01 10:06:09;;;;;;;16.53;7.40;;;6.10;99.90;;;;;;5099537;28;20035;-78
2022/12/01 10:08:40;;;;;;;15.67;7.20;;;6.10;99.90;;;;;;5094881;28;20028;-78
2022/12/01 10:11:31;;;;;;;17.03;6.60;;;6.10;99.90;;;;;;5114462;28;20035;-78
2022/12/01 10:13:58;;;;;;;15.80;6.70;;;6.10;99.90;;;;;;5114091;28;20028;-78
2022/12/01 10:16:37;;;;;;;19.53;7.70;;;6.10;99.90;;;;;;5114188;28;20099;-77
2022/12/01 10:19:14;;;;;;;15.53;6.87;;;6.10;99.90;;;;;;5107608;28;20433;-78
2022/12/01 10:22:17;;;;;;;17.83;7.43;;;6.10;99.90;;;;;;5108224;28;20024;-78
2022/12/01 10:24:59;;;;;;;17.37;8.30;;;6.10;99.90;;;;;;5091324;28;20032;-78
2022/12/01 10:28:03;;;;;;;19.65;8.15;;;6.10;99.90;;;;;;5094113;28;20461;-78
2022/12/01 10:30:28;;;;;;;14.73;7.13;;;6.10;99.90;;;;;;5058785;28;20026;-78
2022/12/01 10:32:56;;;;;;;20.07;7.13;;;6.10;99.90;;;;;;5095134;28;20092;-77
2022/12/01 10:35:28;;;;;;;15.30;7.20;;;6.10;99.90;;;;;;5093255;28;20295;-77
2022/12/01 10:38:00;;;;;;;16.45;7.80;;;6.10;99.90;;;;;;5093820;28;20445;-77
2022/12/01 10:40:27;;;;;;;17.83;7.40;;;6.20;99.90;;;;;;5095288;28;20070;-78
2022/12/01 10:42:53;;;;;;;16.23;7.27;;;6.10;99.90;;;;;;5113620;28;20019;-77
2022/12/01 10:45:25;;;;;;;17.70;7.63;;;6.20;99.90;;;;;;5103225;28;20042;-77
2022/12/01 10:48:09;;;;;;;;;;;6.20;99.90;;;;;;5108072;28;20476;-78
2022/12/01 10:50:35;;;;;;;17.13;7.17;;;6.20;99.90;;;;;;5114598;28;20294;-77
2022/12/01 10:53:01;;;;;;;14.20;7.00;;;6.20;99.90;;;;;;5114585;28;20085;-78
2022/12/01 10:55:31;;;;;;;15.77;7.00;;;6.20;99.90;;;;;;5113637;28;20540;-77
2022/12/01 10:57:59;;;;;;;13.57;7.20;;;6.20;99.90;;;;;;5100601;28;20024;-79
2022/12/01 11:00:39;;;;;;;16.80;7.17;;;6.20;99.90;;;;;;5099557;28;20061;-79
2022/12/01 11:03:05;;;;;;;17.57;7.97;;;6.20;99.90;;;;;;5111138;28;20059;-79
2022/12/01 11:05:39;;;;;;;15.13;7.03;;;6.20;99.90;;;;;;5100550;28;20063;-74
2022/12/01 11:08:05;;;;;;;17.03;7.17;;;6.20;99.90;;;;;;5093031;28;20035;-78
2022/12/01 11:10:32;;;;;;;14.57;6.97;;;6.20;99.90;;;;;;5099669;28;20031;-75
2022/12/01 11:13:06;;;;;;;15.60;7.60;;;6.30;99.90;;;;;;5099431;28;20049;-75
2022/12/01 11:15:38;;;;;;;15.30;7.47;;;6.30;99.90;;;;;;5095048;28;20493;-74
2022/12/01 11:18:25;;;;;;;18.10;7.17;;;6.30;99.90;;;;;;5112303;28;20081;-77
2022/12/01 11:21:14;;;;;;;18.83;8.30;;;6.20;99.90;;;;;;5081308;28;20068;-74
2022/12/01 11:23:48;;;;;;;16.83;7.27;;;6.20;99.90;;;;;;5103606;28;20027;-73
2022/12/01 11:26:26;;;;;;;17.93;7.67;;;6.30;99.90;;;;;;5103104;28;20106;-74
2022/12/01 11:29:00;;;;;;;16.67;7.67;;;6.20;99.90;;;;;;5112309;28;20023;-75
2022/12/01 11:31:35;;;;;;;17.50;7.50;;;6.30;99.90;;;;;;5110837;28;20164;-74
2022/12/01 11:34:00;;;;;;;19.60;7.93;;;6.30;99.90;;;;;;5091924;28;20073;-74
2022/12/01 11:36:36;;;;;;;18.77;7.60;;;6.30;99.90;;;;;;5100492;28;20049;-74
2022/12/01 11:39:02;;;;;;;17.07;7.90;;;6.20;99.90;;;;;;5106149;28;20537;-73
2022/12/01 11:41:39;;;;;;;19.17;8.57;;;6.30;99.90;;;;;;5111666;28;20876;-73
2022/12/01 11:44:15;;;;;;;16.13;7.90;;;6.30;99.90;;;;;;5092778;28;20195;-75
2022/12/01 11:46:41;;;;;;;16.77;7.77;;;6.20;99.90;;;;;;5102365;28;20039;-74
2022/12/01 11:49:19;;;;;;;18.23;7.83;;;6.30;99.90;;;;;;5100288;28;20038;-75
2022/12/01 11:51:45;;;;;;;18.73;8.30;;;6.30;99.90;;;;;;5111915;28;20024;-75
2022/12/01 11:54:14;;;;;;;20.60;8.70;;;6.30;99.90;;;;;;5111405;28;20429;-76
2022/12/01 11:56:40;;;;;;;16.00;7.53;;;6.30;99.90;;;;;;5113318;28;20035;-75
2022/12/01 11:59:19;;;;;;;18.37;8.40;;;6.30;99.90;;;;;;5112935;28;20114;-76
2022/12/01 12:01:48;;;;;;;17.80;8.13;;;6.40;99.90;;;;;;5099082;28;20020;-74
2022/12/01 12:04:50;;;;;;;16.43;7.10;;;6.40;99.90;;;;;;5108129;28;20028;-76
2022/12/01 12:07:16;;;;;;;17.03;8.50;;;6.40;99.90;;;;;;5102525;28;20376;-75
2022/12/01 12:09:53;;;;;;;20.97;9.03;;;6.50;99.90;;;;;;5111023;28;20015;-75
2022/12/01 12:12:39;;;;;;;17.93;7.53;;;6.50;99.90;;;;;;5111573;28;20122;-74
2022/12/01 12:15:27;;;;;;;17.60;7.57;;;6.50;99.90;;;;;;5110558;28;20079;-74
2022/12/01 12:18:05;;;;;;;17.70;8.20;;;6.50;99.90;;;;;;5111311;28;20384;-74
2022/12/01 12:20:41;;;;;;;17.17;7.70;;;6.40;99.90;;;;;;5110095;28;20023;-73
2022/12/01 12:23:32;;;;;;;15.90;7.93;;;6.50;99.90;;;;;;5108821;28;20111;-77
2022/12/01 12:25:57;;;;;;;18.90;7.90;;;6.50;99.90;;;;;;5108865;28;20096;-74
2022/12/01 12:28:45;;;;;;;21.17;9.00;;;6.40;99.90;;;;;;5109181;28;20465;-75
2022/12/01 12:31:13;;;;;;;17.10;7.83;;;6.40;99.90;;;;;;5110853;28;20081;-77
2022/12/01 12:33:57;;;;;;;16.87;8.17;;;6.40;99.90;;;;;;5109880;28;20024;-72
2022/12/01 12:36:35;;;;;;;21.83;8.13;;;6.30;99.90;;;;;;5108315;28;20027;-73
2022/12/01 12:39:25;;;;;;;17.67;8.27;;;6.30;99.90;;;;;;5109020;28;20110;-73
2022/12/01 12:41:55;;;;;;;20.87;8.90;;;6.30;99.90;;;;;;5101424;28;20103;-75
2022/12/01 12:44:43;;;;;;;19.70;8.87;;;6.30;99.90;;;;;;5109912;28;20055;-73
2022/12/01 12:47:34;;;;;;;27.23;8.60;;;6.30;99.90;;;;;;5104792;28;20057;-75
2022/12/01 12:50:13;;;;;;;19.25;8.25;;;6.30;99.90;;;;;;5100023;28;20473;-75
2022/12/01 12:52:43;;;;;;;19.67;8.07;;;6.30;99.90;;;;;;5091153;28;20032;-73
2022/12/01 12:55:33;;;;;;;17.63;8.23;;;6.30;99.90;;;;;;5099825;28;20023;-76
2022/12/01 12:58:09;;;;;;;20.30;9.13;;;6.30;99.90;;;;;;5098456;28;20028;-71
2022/12/01 13:00:41;;;;;;;18.50;8.23;;;6.30;99.90;;;;;;5097860;28;20110;-72
2022/12/01 13:03:42;;;;;;;20.63;9.10;;;6.30;99.90;;;;;;5106756;28;20050;-76
2022/12/01 13:06:16;;;;;;;19.53;8.47;;;6.40;99.90;;;;;;5099882;28;20035;-77